sensor_id;sensor_type;location;lat;lon;timestamp;P1;durP1;ratioP1;P2;durP2;ratioP2
31872;SDS011;22407;42.820;23.374;2023-04-10T00:00:15;13.30;;;6.13;;
31872;SDS011;22407;42.820;23.374;2023-04-10T00:02:40;12.30;;;5.70;;
31872;SDS011;22407;42.820;23.374;2023-04-10T00:05:06;12.73;;;5.57;;
31872;SDS011;22407;42.820;23.374;2023-04-10T00:07:32;12.80;;;5.95;;
31872;SDS011;22407;42.820;23.374;2023-04-10T00:09:58;15.93;;;6.60;;
31872;SDS011;22407;42.820;23.374;2023-04-10T00:12:23;12.35;;;5.85;;
31872;SDS011;22407;42.820;23.374;2023-04-10T00:14:49;13.50;;;5.23;;
31872;SDS011;22407;42.820;23.374;2023-04-10T00:17:14;23.40;;;8.40;;
31872;SDS011;22407;42.820;23.374;2023-04-10T00:19:39;18.53;;;7.53;;
31872;SDS011;22407;42.820;23.374;2023-04-10T00:22:05;12.65;;;5.82;;
31872;SDS011;22407;42.820;23.374;2023-04-10T00:24:30;13.97;;;5.50;;
31872;SDS011;22407;42.820;23.374;2023-04-10T00:26:55;13.60;;;6.07;;
31872;SDS011;22407;42.820;23.374;2023-04-10T00:29:21;13.40;;;6.27;;
31872;SDS011;22407;42.820;23.374;2023-04-10T00:31:46;13.70;;;5.90;;
31872;SDS011;22407;42.820;23.374;2023-04-10T00:34:12;20.57;;;8.63;;
31872;SDS011;22407;42.820;23.374;2023-04-10T00:36:38;15.90;;;7.13;;
31872;SDS011;22407;42.820;23.374;2023-04-10T00:39:03;14.70;;;6.80;;
31872;SDS011;22407;42.820;23.374;2023-04-10T00:41:28;14.88;;;6.05;;
31872;SDS011;22407;42.820;23.374;2023-04-10T00:43:54;16.93;;;6.53;;
31872;SDS011;22407;42.820;23.374;2023-04-10T00:46:20;14.13;;;6.43;;
31872;SDS011;22407;42.820;23.374;2023-04-10T00:48:46;14.68;;;6.07;;
31872;SDS011;22407;42.820;23.374;2023-04-10T00:51:11;18.33;;;7.40;;
31872;SDS011;22407;42.820;23.374;2023-04-10T00:53:36;17.63;;;6.67;;
31872;SDS011;22407;42.820;23.374;2023-04-10T00:56:02;18.73;;;7.53;;
31872;SDS011;22407;42.820;23.374;2023-04-10T00:58:27;35.08;;;10.90;;
31872;SDS011;22407;42.820;23.374;2023-04-10T01:00:53;20.43;;;6.83;;
31872;SDS011;22407;42.820;23.374;2023-04-10T01:03:19;15.13;;;5.80;;
31872;SDS011;22407;42.820;23.374;2023-04-10T01:11:10;13.10;;;5.90;;
31872;SDS011;22407;42.820;23.374;2023-04-10T01:13:35;16.67;;;7.07;;
31872;SDS011;22407;42.820;23.374;2023-04-10T01:16:05;19.90;;;7.28;;
31872;SDS011;22407;42.820;23.374;2023-04-10T01:21:26;15.75;;;6.13;;
31872;SDS011;22407;42.820;23.374;2023-04-10T01:23:53;17.40;;;6.23;;
31872;SDS011;22407;42.820;23.374;2023-04-10T01:29:13;14.17;;;6.00;;
31872;SDS011;22407;42.820;23.374;2023-04-10T01:34:09;19.17;;;9.10;;
31872;SDS011;22407;42.820;23.374;2023-04-10T01:36:37;15.43;;;6.75;;
31872;SDS011;22407;42.820;23.374;2023-04-10T01:39:04;12.65;;;6.20;;
31872;SDS011;22407;42.820;23.374;2023-04-10T01:41:31;14.10;;;6.07;;
31872;SDS011;22407;42.820;23.374;2023-04-10T01:43:57;12.82;;;5.82;;
31872;SDS011;22407;42.820;23.374;2023-04-10T01:46:23;11.47;;;5.90;;
31872;SDS011;22407;42.820;23.374;2023-04-10T01:48:49;13.30;;;5.97;;
31872;SDS011;22407;42.820;23.374;2023-04-10T01:51:15;14.10;;;6.30;;
31872;SDS011;22407;42.820;23.374;2023-04-10T01:53:41;13.33;;;5.80;;
31872;SDS011;22407;42.820;23.374;2023-04-10T01:56:07;14.43;;;6.30;;
31872;SDS011;22407;42.820;23.374;2023-04-10T01:58:33;16.52;;;7.22;;
31872;SDS011;22407;42.820;23.374;2023-04-10T02:00:59;17.13;;;6.67;;
31872;SDS011;22407;42.820;23.374;2023-04-10T02:03:24;16.47;;;6.50;;
31872;SDS011;22407;42.820;23.374;2023-04-10T02:06:00;15.75;;;6.38;;
31872;SDS011;22407;42.820;23.374;2023-04-10T02:08:33;15.37;;;6.27;;
31872;SDS011;22407;42.820;23.374;2023-04-10T02:11:01;15.48;;;6.72;;
31872;SDS011;22407;42.820;23.374;2023-04-10T02:13:28;16.25;;;7.28;;
31872;SDS011;22407;42.820;23.374;2023-04-10T02:15:54;16.52;;;6.70;;
31872;SDS011;22407;42.820;23.374;2023-04-10T02:18:21;13.98;;;6.03;;
31872;SDS011;22407;42.820;23.374;2023-04-10T02:20:46;16.20;;;6.60;;
31872;SDS011;22407;42.820;23.374;2023-04-10T02:23:14;13.67;;;6.37;;
31872;SDS011;22407;42.820;23.374;2023-04-10T02:25:39;13.80;;;6.13;;
31872;SDS011;22407;42.820;23.374;2023-04-10T02:28:05;13.43;;;6.20;;
31872;SDS011;22407;42.820;23.374;2023-04-10T02:30:30;13.32;;;6.07;;
31872;SDS011;22407;42.820;23.374;2023-04-10T02:32:57;15.07;;;6.43;;
31872;SDS011;22407;42.820;23.374;2023-04-10T02:35:22;14.17;;;6.30;;
31872;SDS011;22407;42.820;23.374;2023-04-10T02:37:48;13.93;;;6.20;;
31872;SDS011;22407;42.820;23.374;2023-04-10T02:40:14;12.77;;;5.90;;
31872;SDS011;22407;42.820;23.374;2023-04-10T02:42:40;15.70;;;6.50;;
31872;SDS011;22407;42.820;23.374;2023-04-10T02:45:05;14.30;;;6.37;;
31872;SDS011;22407;42.820;23.374;2023-04-10T02:47:31;16.90;;;7.43;;
31872;SDS011;22407;42.820;23.374;2023-04-10T02:49:56;15.97;;;6.40;;
31872;SDS011;22407;42.820;23.374;2023-04-10T02:52:21;16.30;;;6.37;;
31872;SDS011;22407;42.820;23.374;2023-04-10T02:54:47;14.93;;;6.23;;
31872;SDS011;22407;42.820;23.374;2023-04-10T02:57:12;14.77;;;5.90;;
31872;SDS011;22407;42.820;23.374;2023-04-10T02:59:37;21.33;;;8.93;;
31872;SDS011;22407;42.820;23.374;2023-04-10T03:02:03;17.83;;;7.70;;
31872;SDS011;22407;42.820;23.374;2023-04-10T03:04:30;16.07;;;6.80;;
31872;SDS011;22407;42.820;23.374;2023-04-10T03:06:55;16.48;;;6.72;;
31872;SDS011;22407;42.820;23.374;2023-04-10T03:09:21;17.40;;;6.10;;
31872;SDS011;22407;42.820;23.374;2023-04-10T03:11:46;14.77;;;6.23;;
31872;SDS011;22407;42.820;23.374;2023-04-10T03:14:11;19.77;;;6.40;;
31872;SDS011;22407;42.820;23.374;2023-04-10T03:16:37;16.07;;;6.77;;
31872;SDS011;22407;42.820;23.374;2023-04-10T03:19:02;17.67;;;7.07;;
31872;SDS011;22407;42.820;23.374;2023-04-10T03:21:27;16.30;;;7.18;;
31872;SDS011;22407;42.820;23.374;2023-04-10T03:23:54;16.40;;;6.77;;
31872;SDS011;22407;42.820;23.374;2023-04-10T03:26:20;17.52;;;8.15;;
31872;SDS011;22407;42.820;23.374;2023-04-10T03:28:47;19.45;;;7.68;;
31872;SDS011;22407;42.820;23.374;2023-04-10T03:31:13;18.10;;;7.30;;
31872;SDS011;22407;42.820;23.374;2023-04-10T03:33:38;16.43;;;7.47;;
31872;SDS011;22407;42.820;23.374;2023-04-10T03:36:03;18.47;;;7.17;;
31872;SDS011;22407;42.820;23.374;2023-04-10T03:38:29;20.98;;;9.68;;
31872;SDS011;22407;42.820;23.374;2023-04-10T03:40:54;19.47;;;9.10;;
31872;SDS011;22407;42.820;23.374;2023-04-10T03:43:20;19.07;;;9.03;;
31872;SDS011;22407;42.820;23.374;2023-04-10T03:45:45;19.93;;;8.30;;
31872;SDS011;22407;42.820;23.374;2023-04-10T03:48:11;19.85;;;8.70;;
31872;SDS011;22407;42.820;23.374;2023-04-10T03:50:36;18.57;;;7.70;;
31872;SDS011;22407;42.820;23.374;2023-04-10T03:53:01;17.27;;;6.77;;
31872;SDS011;22407;42.820;23.374;2023-04-10T03:55:27;18.00;;;8.27;;
31872;SDS011;22407;42.820;23.374;2023-04-10T03:57:52;17.02;;;7.35;;
31872;SDS011;22407;42.820;23.374;2023-04-10T04:00:18;16.63;;;6.93;;
31872;SDS011;22407;42.820;23.374;2023-04-10T04:02:44;18.87;;;7.93;;
31872;SDS011;22407;42.820;23.374;2023-04-10T04:05:09;20.77;;;8.23;;
31872;SDS011;22407;42.820;23.374;2023-04-10T04:07:35;18.43;;;7.90;;
31872;SDS011;22407;42.820;23.374;2023-04-10T04:10:00;19.77;;;8.03;;
31872;SDS011;22407;42.820;23.374;2023-04-10T04:12:26;18.40;;;7.83;;
31872;SDS011;22407;42.820;23.374;2023-04-10T04:14:51;23.13;;;9.53;;
31872;SDS011;22407;42.820;23.374;2023-04-10T04:17:16;22.10;;;8.97;;
31872;SDS011;22407;42.820;23.374;2023-04-10T04:19:42;21.45;;;9.02;;
31872;SDS011;22407;42.820;23.374;2023-04-10T04:22:07;23.33;;;9.07;;
31872;SDS011;22407;42.820;23.374;2023-04-10T04:24:32;23.50;;;9.20;;
31872;SDS011;22407;42.820;23.374;2023-04-10T04:26:58;30.03;;;13.20;;
31872;SDS011;22407;42.820;23.374;2023-04-10T04:29:23;33.53;;;13.50;;
31872;SDS011;22407;42.820;23.374;2023-04-10T04:31:49;39.83;;;15.73;;
31872;SDS011;22407;42.820;23.374;2023-04-10T04:34:14;64.88;;;24.58;;
31872;SDS011;22407;42.820;23.374;2023-04-10T04:36:40;52.97;;;20.53;;
31872;SDS011;22407;42.820;23.374;2023-04-10T04:39:05;54.92;;;17.90;;
31872;SDS011;22407;42.820;23.374;2023-04-10T04:41:31;55.50;;;18.97;;
31872;SDS011;22407;42.820;23.374;2023-04-10T04:43:57;42.67;;;15.80;;
31872;SDS011;22407;42.820;23.374;2023-04-10T04:46:23;52.63;;;16.10;;
31872;SDS011;22407;42.820;23.374;2023-04-10T04:48:48;46.03;;;15.97;;
31872;SDS011;22407;42.820;23.374;2023-04-10T04:51:13;38.75;;;12.93;;
31872;SDS011;22407;42.820;23.374;2023-04-10T04:53:39;43.63;;;15.90;;
31872;SDS011;22407;42.820;23.374;2023-04-10T04:56:04;39.00;;;13.80;;
31872;SDS011;22407;42.820;23.374;2023-04-10T04:58:30;32.13;;;12.70;;
31872;SDS011;22407;42.820;23.374;2023-04-10T05:00:55;28.43;;;10.80;;
31872;SDS011;22407;42.820;23.374;2023-04-10T05:03:20;29.95;;;10.90;;
31872;SDS011;22407;42.820;23.374;2023-04-10T05:05:46;24.60;;;9.50;;
31872;SDS011;22407;42.820;23.374;2023-04-10T05:08:11;21.97;;;9.73;;
31872;SDS011;22407;42.820;23.374;2023-04-10T05:10:36;20.93;;;8.87;;
31872;SDS011;22407;42.820;23.374;2023-04-10T05:13:02;25.73;;;10.87;;
31872;SDS011;22407;42.820;23.374;2023-04-10T05:15:27;26.07;;;11.50;;
31872;SDS011;22407;42.820;23.374;2023-04-10T05:17:52;25.73;;;11.40;;
31872;SDS011;22407;42.820;23.374;2023-04-10T05:20:18;30.57;;;14.00;;
31872;SDS011;22407;42.820;23.374;2023-04-10T05:22:43;25.73;;;11.43;;
31872;SDS011;22407;42.820;23.374;2023-04-10T05:25:09;30.70;;;14.70;;
31872;SDS011;22407;42.820;23.374;2023-04-10T05:27:34;28.02;;;13.15;;
31872;SDS011;22407;42.820;23.374;2023-04-10T05:29:59;29.20;;;13.93;;
31872;SDS011;22407;42.820;23.374;2023-04-10T05:32:25;24.30;;;11.30;;
31872;SDS011;22407;42.820;23.374;2023-04-10T05:34:50;32.00;;;15.97;;
31872;SDS011;22407;42.820;23.374;2023-04-10T05:37:15;25.00;;;9.83;;
31872;SDS011;22407;42.820;23.374;2023-04-10T05:39:41;25.03;;;10.33;;
31872;SDS011;22407;42.820;23.374;2023-04-10T05:42:06;26.10;;;11.20;;
31872;SDS011;22407;42.820;23.374;2023-04-10T05:44:31;19.05;;;9.32;;
31872;SDS011;22407;42.820;23.374;2023-04-10T05:46:57;20.97;;;8.47;;
31872;SDS011;22407;42.820;23.374;2023-04-10T05:49:22;22.43;;;9.67;;
31872;SDS011;22407;42.820;23.374;2023-04-10T05:51:47;22.13;;;12.23;;
31872;SDS011;22407;42.820;23.374;2023-04-10T05:54:17;25.45;;;14.35;;
31872;SDS011;22407;42.820;23.374;2023-04-10T05:56:42;24.33;;;12.50;;
31872;SDS011;22407;42.820;23.374;2023-04-10T05:59:07;21.30;;;9.80;;
31872;SDS011;22407;42.820;23.374;2023-04-10T06:01:32;21.00;;;9.60;;
31872;SDS011;22407;42.820;23.374;2023-04-10T06:03:58;27.47;;;14.03;;
31872;SDS011;22407;42.820;23.374;2023-04-10T06:06:24;18.27;;;9.50;;
31872;SDS011;22407;42.820;23.374;2023-04-10T06:08:50;23.33;;;11.82;;
31872;SDS011;22407;42.820;23.374;2023-04-10T06:11:15;22.10;;;10.47;;
31872;SDS011;22407;42.820;23.374;2023-04-10T06:13:41;17.63;;;8.33;;
31872;SDS011;22407;42.820;23.374;2023-04-10T06:16:06;22.07;;;11.73;;
31872;SDS011;22407;42.820;23.374;2023-04-10T06:18:32;18.23;;;9.17;;
31872;SDS011;22407;42.820;23.374;2023-04-10T06:20:57;20.77;;;9.00;;
31872;SDS011;22407;42.820;23.374;2023-04-10T06:23:25;18.45;;;9.27;;
31872;SDS011;22407;42.820;23.374;2023-04-10T06:25:51;18.45;;;7.65;;
31872;SDS011;22407;42.820;23.374;2023-04-10T06:28:17;17.70;;;8.43;;
31872;SDS011;22407;42.820;23.374;2023-04-10T06:30:42;18.27;;;8.97;;
31872;SDS011;22407;42.820;23.374;2023-04-10T06:33:07;18.10;;;8.77;;
31872;SDS011;22407;42.820;23.374;2023-04-10T06:35:33;19.15;;;8.18;;
31872;SDS011;22407;42.820;23.374;2023-04-10T06:37:58;18.67;;;8.40;;
31872;SDS011;22407;42.820;23.374;2023-04-10T06:40:24;18.53;;;8.63;;
31872;SDS011;22407;42.820;23.374;2023-04-10T06:42:49;17.30;;;8.17;;
31872;SDS011;22407;42.820;23.374;2023-04-10T06:45:14;19.17;;;9.77;;
31872;SDS011;22407;42.820;23.374;2023-04-10T06:47:40;18.80;;;8.10;;
31872;SDS011;22407;42.820;23.374;2023-04-10T06:50:05;16.40;;;7.77;;
31872;SDS011;22407;42.820;23.374;2023-04-10T06:52:31;15.07;;;7.13;;
31872;SDS011;22407;42.820;23.374;2023-04-10T06:54:56;18.70;;;6.93;;
31872;SDS011;22407;42.820;23.374;2023-04-10T06:57:21;16.03;;;7.30;;
31872;SDS011;22407;42.820;23.374;2023-04-10T06:59:47;14.90;;;6.67;;
31872;SDS011;22407;42.820;23.374;2023-04-10T07:02:12;16.87;;;7.77;;
31872;SDS011;22407;42.820;23.374;2023-04-10T07:04:37;16.53;;;7.33;;
31872;SDS011;22407;42.820;23.374;2023-04-10T07:07:03;19.30;;;7.97;;
31872;SDS011;22407;42.820;23.374;2023-04-10T07:09:29;15.85;;;7.72;;
31872;SDS011;22407;42.820;23.374;2023-04-10T07:11:55;15.70;;;7.53;;
31872;SDS011;22407;42.820;23.374;2023-04-10T07:14:20;14.47;;;6.97;;
31872;SDS011;22407;42.820;23.374;2023-04-10T07:16:47;16.83;;;7.77;;
31872;SDS011;22407;42.820;23.374;2023-04-10T07:19:12;17.40;;;7.90;;
31872;SDS011;22407;42.820;23.374;2023-04-10T07:21:37;15.77;;;7.73;;
31872;SDS011;22407;42.820;23.374;2023-04-10T07:24:03;13.97;;;6.80;;
31872;SDS011;22407;42.820;23.374;2023-04-10T07:26:28;15.17;;;6.97;;
31872;SDS011;22407;42.820;23.374;2023-04-10T07:28:53;15.27;;;7.50;;
31872;SDS011;22407;42.820;23.374;2023-04-10T07:31:19;16.92;;;7.97;;
31872;SDS011;22407;42.820;23.374;2023-04-10T07:33:44;16.47;;;7.47;;
31872;SDS011;22407;42.820;23.374;2023-04-10T07:36:10;17.45;;;7.53;;
31872;SDS011;22407;42.820;23.374;2023-04-10T07:38:36;17.17;;;7.20;;
31872;SDS011;22407;42.820;23.374;2023-04-10T07:41:02;22.90;;;9.55;;
31872;SDS011;22407;42.820;23.374;2023-04-10T07:43:28;17.17;;;7.77;;
31872;SDS011;22407;42.820;23.374;2023-04-10T07:45:54;18.87;;;8.77;;
31872;SDS011;22407;42.820;23.374;2023-04-10T07:48:19;17.25;;;8.00;;
31872;SDS011;22407;42.820;23.374;2023-04-10T07:50:45;16.07;;;7.87;;
31872;SDS011;22407;42.820;23.374;2023-04-10T07:53:10;17.63;;;7.77;;
31872;SDS011;22407;42.820;23.374;2023-04-10T07:55:36;21.40;;;8.57;;
31872;SDS011;22407;42.820;23.374;2023-04-10T07:58:01;16.27;;;7.70;;
31872;SDS011;22407;42.820;23.374;2023-04-10T08:00:27;19.33;;;9.77;;
31872;SDS011;22407;42.820;23.374;2023-04-10T08:02:52;18.03;;;8.30;;
31872;SDS011;22407;42.820;23.374;2023-04-10T08:05:17;14.57;;;6.63;;
31872;SDS011;22407;42.820;23.374;2023-04-10T08:07:43;14.13;;;7.07;;
31872;SDS011;22407;42.820;23.374;2023-04-10T08:10:08;20.33;;;9.60;;
31872;SDS011;22407;42.820;23.374;2023-04-10T08:12:33;18.00;;;8.33;;
31872;SDS011;22407;42.820;23.374;2023-04-10T08:14:59;13.03;;;6.83;;
31872;SDS011;22407;42.820;23.374;2023-04-10T08:17:24;16.20;;;7.40;;
31872;SDS011;22407;42.820;23.374;2023-04-10T08:19:49;16.73;;;7.73;;
31872;SDS011;22407;42.820;23.374;2023-04-10T08:22:15;15.70;;;7.90;;
31872;SDS011;22407;42.820;23.374;2023-04-10T08:24:40;14.30;;;7.03;;
31872;SDS011;22407;42.820;23.374;2023-04-10T08:27:05;17.50;;;8.43;;
31872;SDS011;22407;42.820;23.374;2023-04-10T08:29:31;14.33;;;7.33;;
31872;SDS011;22407;42.820;23.374;2023-04-10T08:31:56;17.53;;;7.20;;
31872;SDS011;22407;42.820;23.374;2023-04-10T08:34:24;16.50;;;7.95;;
31872;SDS011;22407;42.820;23.374;2023-04-10T08:36:50;19.90;;;9.03;;
31872;SDS011;22407;42.820;23.374;2023-04-10T08:39:15;17.37;;;8.27;;
31872;SDS011;22407;42.820;23.374;2023-04-10T08:41:40;16.30;;;8.00;;
31872;SDS011;22407;42.820;23.374;2023-04-10T08:44:06;18.10;;;8.37;;
31872;SDS011;22407;42.820;23.374;2023-04-10T08:46:31;13.67;;;6.60;;
31872;SDS011;22407;42.820;23.374;2023-04-10T08:49:05;15.48;;;8.02;;
31872;SDS011;22407;42.820;23.374;2023-04-10T08:51:39;17.83;;;8.70;;
31872;SDS011;22407;42.820;23.374;2023-04-10T08:54:07;18.80;;;8.93;;
31872;SDS011;22407;42.820;23.374;2023-04-10T08:56:34;16.83;;;7.97;;
31872;SDS011;22407;42.820;23.374;2023-04-10T08:59:04;19.05;;;8.75;;
31872;SDS011;22407;42.820;23.374;2023-04-10T09:01:31;24.95;;;12.02;;
31872;SDS011;22407;42.820;23.374;2023-04-10T09:03:58;18.95;;;10.02;;
31872;SDS011;22407;42.820;23.374;2023-04-10T09:06:24;24.87;;;11.87;;
31872;SDS011;22407;42.820;23.374;2023-04-10T09:08:49;23.70;;;10.30;;
31872;SDS011;22407;42.820;23.374;2023-04-10T09:11:15;19.83;;;8.95;;
31872;SDS011;22407;42.820;23.374;2023-04-10T09:13:41;21.07;;;10.20;;
31872;SDS011;22407;42.820;23.374;2023-04-10T09:16:08;20.83;;;10.05;;
31872;SDS011;22407;42.820;23.374;2023-04-10T09:18:46;19.60;;;9.80;;
31872;SDS011;22407;42.820;23.374;2023-04-10T09:21:13;19.90;;;9.90;;
31872;SDS011;22407;42.820;23.374;2023-04-10T09:23:40;18.13;;;8.93;;
31872;SDS011;22407;42.820;23.374;2023-04-10T09:26:27;18.65;;;9.52;;
31872;SDS011;22407;42.820;23.374;2023-04-10T09:28:55;21.30;;;10.77;;
31872;SDS011;22407;42.820;23.374;2023-04-10T09:31:32;18.42;;;8.95;;
31872;SDS011;22407;42.820;23.374;2023-04-10T09:36:42;25.25;;;11.32;;
31872;SDS011;22407;42.820;23.374;2023-04-10T09:39:08;19.23;;;8.65;;
31872;SDS011;22407;42.820;23.374;2023-04-10T09:41:34;13.70;;;7.20;;
31872;SDS011;22407;42.820;23.374;2023-04-10T09:46:31;14.38;;;7.40;;
31872;SDS011;22407;42.820;23.374;2023-04-10T09:48:56;17.27;;;9.37;;
31872;SDS011;22407;42.820;23.374;2023-04-10T09:51:29;15.93;;;8.07;;
31872;SDS011;22407;42.820;23.374;2023-04-10T09:53:55;17.33;;;8.80;;
31872;SDS011;22407;42.820;23.374;2023-04-10T09:56:21;17.05;;;8.45;;
31872;SDS011;22407;42.820;23.374;2023-04-10T09:58:46;23.63;;;10.70;;
31872;SDS011;22407;42.820;23.374;2023-04-10T10:01:13;21.75;;;9.65;;
31872;SDS011;22407;42.820;23.374;2023-04-10T10:03:38;15.33;;;7.67;;
31872;SDS011;22407;42.820;23.374;2023-04-10T10:06:04;15.13;;;8.27;;
31872;SDS011;22407;42.820;23.374;2023-04-10T10:08:30;36.30;;;13.57;;
31872;SDS011;22407;42.820;23.374;2023-04-10T10:10:58;20.90;;;10.87;;
31872;SDS011;22407;42.820;23.374;2023-04-10T10:13:28;17.73;;;8.68;;
31872;SDS011;22407;42.820;23.374;2023-04-10T10:20:46;16.33;;;8.27;;
31872;SDS011;22407;42.820;23.374;2023-04-10T10:23:11;16.93;;;8.00;;
31872;SDS011;22407;42.820;23.374;2023-04-10T10:25:38;17.05;;;8.98;;
31872;SDS011;22407;42.820;23.374;2023-04-10T10:28:03;16.43;;;8.50;;
31872;SDS011;22407;42.820;23.374;2023-04-10T10:30:32;17.07;;;8.27;;
31872;SDS011;22407;42.820;23.374;2023-04-10T10:32:58;14.35;;;7.82;;
31872;SDS011;22407;42.820;23.374;2023-04-10T10:35:25;15.88;;;8.30;;
31872;SDS011;22407;42.820;23.374;2023-04-10T10:37:50;16.85;;;8.48;;
31872;SDS011;22407;42.820;23.374;2023-04-10T10:40:21;17.93;;;8.73;;
31872;SDS011;22407;42.820;23.374;2023-04-10T10:42:56;14.95;;;7.88;;
31872;SDS011;22407;42.820;23.374;2023-04-10T10:48:09;15.17;;;7.50;;
31872;SDS011;22407;42.820;23.374;2023-04-10T10:53:36;17.02;;;8.23;;
31872;SDS011;22407;42.820;23.374;2023-04-10T10:58:49;15.43;;;8.13;;
31872;SDS011;22407;42.820;23.374;2023-04-10T11:01:14;21.73;;;8.20;;
31872;SDS011;22407;42.820;23.374;2023-04-10T11:03:40;15.57;;;7.97;;
31872;SDS011;22407;42.820;23.374;2023-04-10T11:06:08;17.15;;;8.50;;
31872;SDS011;22407;42.820;23.374;2023-04-10T11:13:33;17.30;;;9.07;;
31872;SDS011;22407;42.820;23.374;2023-04-10T11:15:59;15.43;;;7.80;;
31872;SDS011;22407;42.820;23.374;2023-04-10T11:19:26;16.77;;;9.43;;
31872;SDS011;22407;42.820;23.374;2023-04-10T11:21:20;16.02;;;8.48;;
31872;SDS011;22407;42.820;23.374;2023-04-10T11:28:59;19.52;;;8.07;;
31872;SDS011;22407;42.820;23.374;2023-04-10T11:31:24;15.05;;;7.88;;
31872;SDS011;22407;42.820;23.374;2023-04-10T11:33:59;13.90;;;6.57;;
31872;SDS011;22407;42.820;23.374;2023-04-10T11:36:25;17.48;;;8.80;;
31872;SDS011;22407;42.820;23.374;2023-04-10T11:38:58;15.80;;;7.57;;
31872;SDS011;22407;42.820;23.374;2023-04-10T11:41:57;13.97;;;7.27;;
31872;SDS011;22407;42.820;23.374;2023-04-10T11:44:16;13.73;;;7.22;;
31872;SDS011;22407;42.820;23.374;2023-04-10T11:46:42;15.02;;;7.88;;
31872;SDS011;22407;42.820;23.374;2023-04-10T11:49:09;16.30;;;7.88;;
31872;SDS011;22407;42.820;23.374;2023-04-10T11:51:35;14.27;;;7.65;;
31872;SDS011;22407;42.820;23.374;2023-04-10T11:56:32;13.63;;;6.22;;
31872;SDS011;22407;42.820;23.374;2023-04-10T11:58:57;12.77;;;6.10;;
31872;SDS011;22407;42.820;23.374;2023-04-10T12:01:22;13.63;;;7.03;;
31872;SDS011;22407;42.820;23.374;2023-04-10T12:03:48;12.87;;;6.57;;
31872;SDS011;22407;42.820;23.374;2023-04-10T12:06:13;13.67;;;6.57;;
31872;SDS011;22407;42.820;23.374;2023-04-10T12:08:40;14.07;;;6.55;;
31872;SDS011;22407;42.820;23.374;2023-04-10T12:11:06;12.88;;;6.28;;
31872;SDS011;22407;42.820;23.374;2023-04-10T12:13:32;12.23;;;6.47;;
31872;SDS011;22407;42.820;23.374;2023-04-10T12:15:58;12.27;;;6.50;;
31872;SDS011;22407;42.820;23.374;2023-04-10T12:18:24;12.52;;;6.80;;
31872;SDS011;22407;42.820;23.374;2023-04-10T12:20:50;14.80;;;8.40;;
31872;SDS011;22407;42.820;23.374;2023-04-10T12:23:19;12.98;;;6.30;;
31872;SDS011;22407;42.820;23.374;2023-04-10T12:25:44;13.67;;;7.00;;
31872;SDS011;22407;42.820;23.374;2023-04-10T12:28:15;14.50;;;7.10;;
31872;SDS011;22407;42.820;23.374;2023-04-10T12:30:50;12.57;;;6.35;;
31872;SDS011;22407;42.820;23.374;2023-04-10T12:33:22;18.45;;;7.50;;
31872;SDS011;22407;42.820;23.374;2023-04-10T12:35:48;14.63;;;7.30;;
31872;SDS011;22407;42.820;23.374;2023-04-10T12:38:13;13.93;;;6.65;;
31872;SDS011;22407;42.820;23.374;2023-04-10T12:40:56;16.80;;;6.47;;
31872;SDS011;22407;42.820;23.374;2023-04-10T12:44:05;20.67;;;9.35;;
31872;SDS011;22407;42.820;23.374;2023-04-10T12:46:26;34.30;;;13.48;;
31872;SDS011;22407;42.820;23.374;2023-04-10T12:48:53;31.23;;;11.83;;
31872;SDS011;22407;42.820;23.374;2023-04-10T12:51:18;16.63;;;7.78;;
31872;SDS011;22407;42.820;23.374;2023-04-10T12:53:44;13.50;;;7.30;;
31872;SDS011;22407;42.820;23.374;2023-04-10T12:56:09;13.35;;;7.15;;
31872;SDS011;22407;42.820;23.374;2023-04-10T12:58:36;11.75;;;6.00;;
31872;SDS011;22407;42.820;23.374;2023-04-10T13:01:05;14.80;;;8.07;;
31872;SDS011;22407;42.820;23.374;2023-04-10T13:03:34;12.57;;;6.50;;
31872;SDS011;22407;42.820;23.374;2023-04-10T13:06:00;11.97;;;5.10;;
31872;SDS011;22407;42.820;23.374;2023-04-10T13:08:25;12.90;;;6.82;;
31872;SDS011;22407;42.820;23.374;2023-04-10T13:10:51;12.57;;;6.57;;
31872;SDS011;22407;42.820;23.374;2023-04-10T13:13:16;12.60;;;6.53;;
31872;SDS011;22407;42.820;23.374;2023-04-10T13:15:42;12.97;;;5.93;;
31872;SDS011;22407;42.820;23.374;2023-04-10T13:18:07;12.23;;;5.90;;
31872;SDS011;22407;42.820;23.374;2023-04-10T13:20:34;13.15;;;6.43;;
31872;SDS011;22407;42.820;23.374;2023-04-10T13:23:00;13.00;;;6.17;;
31872;SDS011;22407;42.820;23.374;2023-04-10T13:25:27;12.75;;;5.65;;
31872;SDS011;22407;42.820;23.374;2023-04-10T13:27:53;12.23;;;5.90;;
31872;SDS011;22407;42.820;23.374;2023-04-10T13:30:18;13.90;;;7.03;;
31872;SDS011;22407;42.820;23.374;2023-04-10T13:32:43;13.30;;;7.00;;
31872;SDS011;22407;42.820;23.374;2023-04-10T13:35:08;10.60;;;5.23;;
31872;SDS011;22407;42.820;23.374;2023-04-10T13:37:34;20.15;;;8.25;;
31872;SDS011;22407;42.820;23.374;2023-04-10T13:39:59;12.63;;;6.13;;
31872;SDS011;22407;42.820;23.374;2023-04-10T13:42:25;11.53;;;5.70;;
31872;SDS011;22407;42.820;23.374;2023-04-10T13:44:50;12.10;;;6.10;;
31872;SDS011;22407;42.820;23.374;2023-04-10T13:47:15;9.87;;;4.27;;
31872;SDS011;22407;42.820;23.374;2023-04-10T13:49:40;9.47;;;4.83;;
31872;SDS011;22407;42.820;23.374;2023-04-10T13:52:06;9.50;;;4.70;;
31872;SDS011;22407;42.820;23.374;2023-04-10T13:54:31;11.03;;;5.33;;
31872;SDS011;22407;42.820;23.374;2023-04-10T13:56:56;10.43;;;5.43;;
31872;SDS011;22407;42.820;23.374;2023-04-10T13:59:23;10.37;;;5.13;;
31872;SDS011;22407;42.820;23.374;2023-04-10T14:01:48;10.75;;;4.72;;
31872;SDS011;22407;42.820;23.374;2023-04-10T14:04:16;9.43;;;4.60;;
31872;SDS011;22407;42.820;23.374;2023-04-10T14:06:41;10.27;;;4.72;;
31872;SDS011;22407;42.820;23.374;2023-04-10T14:09:07;11.40;;;5.63;;
31872;SDS011;22407;42.820;23.374;2023-04-10T14:11:33;18.60;;;8.10;;
31872;SDS011;22407;42.820;23.374;2023-04-10T14:13:58;21.30;;;9.30;;
31872;SDS011;22407;42.820;23.374;2023-04-10T14:16:23;22.57;;;9.63;;
31872;SDS011;22407;42.820;23.374;2023-04-10T14:18:49;13.10;;;6.83;;
31872;SDS011;22407;42.820;23.374;2023-04-10T14:21:14;15.63;;;7.80;;
31872;SDS011;22407;42.820;23.374;2023-04-10T14:23:40;18.63;;;8.32;;
31872;SDS011;22407;42.820;23.374;2023-04-10T14:26:06;17.13;;;8.00;;
31872;SDS011;22407;42.820;23.374;2023-04-10T14:28:32;20.15;;;9.20;;
31872;SDS011;22407;42.820;23.374;2023-04-10T14:30:57;16.20;;;7.33;;
31872;SDS011;22407;42.820;23.374;2023-04-10T14:33:22;12.10;;;6.27;;
31872;SDS011;22407;42.820;23.374;2023-04-10T14:35:48;12.70;;;6.53;;
31872;SDS011;22407;42.820;23.374;2023-04-10T14:38:13;17.43;;;8.57;;
31872;SDS011;22407;42.820;23.374;2023-04-10T14:40:39;17.10;;;9.02;;
31872;SDS011;22407;42.820;23.374;2023-04-10T14:43:05;13.70;;;6.87;;
31872;SDS011;22407;42.820;23.374;2023-04-10T14:45:30;13.05;;;6.70;;
31872;SDS011;22407;42.820;23.374;2023-04-10T14:47:56;12.80;;;6.10;;
31872;SDS011;22407;42.820;23.374;2023-04-10T14:50:22;15.27;;;7.53;;
31872;SDS011;22407;42.820;23.374;2023-04-10T14:52:47;17.33;;;8.67;;
31872;SDS011;22407;42.820;23.374;2023-04-10T14:55:13;17.00;;;8.15;;
31872;SDS011;22407;42.820;23.374;2023-04-10T14:57:38;19.07;;;10.17;;
31872;SDS011;22407;42.820;23.374;2023-04-10T15:00:04;18.47;;;9.97;;